createdAt,value
2022-07-28T00:01:59.605Z,102067.40
2022-07-28T00:04:29.624Z,102074.16
2022-07-28T00:06:59.560Z,102067.02
2022-07-28T00:09:30.774Z,102065.62
2022-07-28T00:12:00.612Z,102065.62
2022-07-28T00:14:31.044Z,102059.00
2022-07-28T00:17:01.110Z,102066.25
2022-07-28T00:19:30.886Z,102061.73
2022-07-28T00:22:01.002Z,102075.62
2022-07-28T00:24:31.786Z,102063.73
2022-07-28T00:27:01.392Z,102069.34
2022-07-28T00:29:49.114Z,102076.78
2022-07-28T00:32:02.934Z,102078.61
2022-07-28T00:34:32.902Z,102078.61
2022-07-28T00:37:06.655Z,102066.30
2022-07-28T00:39:36.041Z,102067.05
2022-07-28T00:42:08.517Z,102060.08
2022-07-28T00:44:40.266Z,102055.83
2022-07-28T00:47:11.794Z,102049.39
2022-07-28T00:49:42.004Z,102048.62
2022-07-28T00:52:13.104Z,102055.28
2022-07-28T00:54:42.860Z,102056.16
2022-07-28T00:57:13.188Z,102054.44
2022-07-28T00:59:43.312Z,102051.06
2022-07-28T01:02:13.284Z,102049.69
2022-07-28T01:04:43.184Z,102047.90
2022-07-28T01:07:32.757Z,102044.91
2022-07-28T01:10:11.161Z,102044.41
2022-07-28T01:12:58.416Z,102043.13
2022-07-28T01:15:39.827Z,102043.26
2022-07-28T01:18:14.453Z,102041.03
2022-07-28T01:20:47.976Z,102036.81
2022-07-28T01:23:35.693Z,102035.44
2022-07-28T01:26:33.721Z,102035.22
2022-07-28T01:29:27.589Z,102033.87
2022-07-28T01:32:09.284Z,102036.81
2022-07-28T01:34:42.975Z,102037.68
2022-07-28T01:37:15.785Z,102036.83
2022-07-28T01:39:49.939Z,102032.58
2022-07-28T01:42:22.464Z,102026.98
2022-07-28T01:44:54.363Z,102025.60
2022-07-28T01:47:26.930Z,102019.87
2022-07-28T01:49:58.842Z,102014.16
2022-07-28T01:52:29.904Z,102018.73
2022-07-28T01:55:02.006Z,102017.65
2022-07-28T01:57:33.804Z,102015.23
2022-07-28T02:00:05.984Z,102016.80
2022-07-28T02:02:39.405Z,102011.64
2022-07-28T02:05:10.746Z,102013.23
2022-07-28T02:07:43.184Z,102005.58
2022-07-28T02:10:16.803Z,102005.91
2022-07-28T02:12:49.933Z,102007.08
2022-07-28T02:15:21.893Z,102006.13
2022-07-28T02:17:53.865Z,102007.91
2022-07-28T02:20:23.904Z,102005.63
2022-07-28T02:22:54.781Z,102011.91
2022-07-28T02:25:24.690Z,102007.30
2022-07-28T02:27:57.856Z,101988.89
2022-07-28T02:30:34.092Z,101988.89
2022-07-28T02:33:12.668Z,101998.95
2022-07-28T02:35:57.728Z,102001.75
2022-07-28T02:38:34.818Z,101995.44
2022-07-28T02:41:07.827Z,101992.78
2022-07-28T02:43:50.350Z,101989.47
2022-07-28T02:46:14.709Z,101989.47
2022-07-28T02:48:47.492Z,101988.08
2022-07-28T02:51:19.538Z,101982.43
2022-07-28T02:53:49.640Z,101986.02
2022-07-28T02:56:20.156Z,101986.49
2022-07-28T02:58:51.054Z,101985.64
2022-07-28T03:01:22.758Z,101985.65
2022-07-28T03:03:55.589Z,101982.33
2022-07-28T03:06:28.546Z,101991.73
2022-07-28T03:08:58.231Z,101993.77
2022-07-28T03:11:29.051Z,101988.47
2022-07-28T03:13:58.834Z,101988.47
2022-07-28T03:16:31.200Z,101996.61
2022-07-28T03:19:01.060Z,101996.06
2022-07-28T03:21:30.833Z,101991.73
2022-07-28T03:24:01.295Z,101990.98
2022-07-28T03:26:36.509Z,101993.95
2022-07-28T03:29:06.517Z,101994.24
2022-07-28T03:31:39.676Z,101997.14
2022-07-28T03:34:11.939Z,102002.83
2022-07-28T03:36:45.051Z,102002.49
2022-07-28T03:39:16.678Z,102010.21
2022-07-28T03:41:46.992Z,102011.47
2022-07-28T03:44:27.828Z,102017.63
2022-07-28T03:46:48.867Z,102018.03
2022-07-28T03:49:18.797Z,102008.71
2022-07-28T03:51:48.800Z,102018.86
2022-07-28T03:54:18.571Z,102021.09
2022-07-28T03:56:48.615Z,102020.15
2022-07-28T03:59:19.569Z,102017.88
2022-07-28T04:01:49.437Z,102021.61
2022-07-28T04:04:18.975Z,102024.97
2022-07-28T04:06:48.752Z,102024.95
2022-07-28T04:09:18.888Z,102028.94
2022-07-28T04:11:48.669Z,102032.45
2022-07-28T04:14:18.851Z,102023.67
2022-07-28T04:16:48.947Z,102026.00
2022-07-28T04:19:18.737Z,102021.80
2022-07-28T04:21:48.508Z,102029.49
2022-07-28T04:24:18.485Z,102025.80
2022-07-28T04:26:48.526Z,102023.67
2022-07-28T04:29:23.469Z,102020.32
2022-07-28T04:31:50.242Z,102018.70
2022-07-28T04:34:20.046Z,102010.77
2022-07-28T04:36:51.452Z,102013.69
2022-07-28T04:39:21.264Z,102004.14
2022-07-28T04:41:52.199Z,102004.14
2022-07-28T04:44:21.969Z,102008.45
2022-07-28T04:46:51.734Z,102010.70
2022-07-28T04:49:21.839Z,102005.75
2022-07-28T04:51:52.444Z,102012.52
2022-07-28T04:54:26.722Z,102012.52
2022-07-28T04:56:55.897Z,102008.07
2022-07-28T04:59:25.705Z,102015.22
2022-07-28T05:01:57.909Z,102015.88
2022-07-28T05:04:27.905Z,102012.72
2022-07-28T05:06:57.748Z,102004.36
2022-07-28T05:09:27.596Z,102011.12
2022-07-28T05:11:57.385Z,102015.23
2022-07-28T05:14:27.239Z,102006.38
2022-07-28T05:16:57.442Z,102005.31
2022-07-28T05:19:27.296Z,102002.66
2022-07-28T05:21:57.157Z,102002.80
2022-07-28T05:24:26.659Z,101999.89
2022-07-28T05:26:56.765Z,101996.78
2022-07-28T05:29:35.156Z,101996.13
2022-07-28T05:31:58.381Z,102001.91
2022-07-28T05:34:27.913Z,102005.59
2022-07-28T05:36:57.856Z,102000.12
2022-07-28T05:39:27.459Z,102002.87
2022-07-28T05:41:57.217Z,102001.34
2022-07-28T05:44:26.935Z,102003.05
2022-07-28T05:46:56.801Z,102002.42
2022-07-28T05:49:26.931Z,102011.06
2022-07-28T05:51:56.987Z,102010.34
2022-07-28T05:54:26.551Z,102013.91
2022-07-28T05:56:56.611Z,102011.84
2022-07-28T05:59:26.710Z,102017.67
2022-07-28T06:01:56.514Z,102018.27
2022-07-28T06:04:27.890Z,102011.47
2022-07-28T06:06:58.092Z,102017.12
2022-07-28T06:09:27.872Z,102010.72
2022-07-28T06:11:57.664Z,102017.45
2022-07-28T06:14:27.423Z,102016.66
2022-07-28T06:16:57.294Z,102019.47
2022-07-28T06:19:27.121Z,102019.20
2022-07-28T06:21:56.682Z,102019.20
2022-07-28T06:24:27.043Z,102014.84
2022-07-28T06:26:56.876Z,102017.70
2022-07-28T06:29:26.373Z,102014.91
2022-07-28T06:31:55.904Z,102014.83
2022-07-28T06:34:25.673Z,102020.31
2022-07-28T06:36:55.787Z,102012.30
2022-07-28T06:39:25.681Z,102022.11
2022-07-28T06:41:55.449Z,102021.13
2022-07-28T06:44:42.528Z,102021.13
2022-07-28T06:46:58.288Z,102016.98
2022-07-28T06:49:27.865Z,102012.74
2022-07-28T06:51:57.768Z,102013.98
2022-07-28T06:54:27.619Z,102011.91
2022-07-28T06:56:57.372Z,102016.23
2022-07-28T06:59:27.322Z,102013.11
2022-07-28T07:01:58.936Z,102014.66
2022-07-28T07:04:29.764Z,102014.43
2022-07-28T07:06:59.565Z,102014.05
2022-07-28T07:09:29.330Z,102013.92
2022-07-28T07:12:00.135Z,102010.76
2022-07-28T07:14:30.753Z,102002.61
2022-07-28T07:17:00.582Z,102007.72
2022-07-28T07:19:30.349Z,102006.73
2022-07-28T07:22:00.137Z,102002.36
2022-07-28T07:24:29.915Z,102003.55
2022-07-28T07:26:59.808Z,101999.11
2022-07-28T07:29:30.353Z,101995.91
2022-07-28T07:32:00.554Z,101995.07
2022-07-28T07:34:30.603Z,101998.45
2022-07-28T07:37:00.670Z,101999.06
2022-07-28T07:39:30.724Z,101997.10
2022-07-28T07:42:00.514Z,101990.81
2022-07-28T07:44:29.961Z,101991.42
2022-07-28T07:46:59.851Z,101987.92
2022-07-28T07:49:45.154Z,101994.00
2022-07-28T07:52:01.320Z,101991.43
2022-07-28T07:54:31.106Z,101993.06
2022-07-28T07:57:01.415Z,101985.83
2022-07-28T07:59:31.176Z,101983.36
2022-07-28T08:02:01.251Z,101982.13
2022-07-28T08:04:31.187Z,101976.92
2022-07-28T08:07:00.974Z,101978.41
2022-07-28T08:09:30.748Z,101975.82
2022-07-28T08:12:00.607Z,101977.43
2022-07-28T08:14:30.263Z,101983.92
2022-07-28T08:17:00.313Z,101977.81
2022-07-28T08:19:30.109Z,101984.02
2022-07-28T08:22:01.662Z,101982.98
2022-07-28T08:24:32.998Z,101983.14
2022-07-28T08:27:04.185Z,101976.06
2022-07-28T08:29:34.209Z,101979.59
2022-07-28T08:32:06.584Z,101973.13
2022-07-28T08:34:37.031Z,101972.48
2022-07-28T08:37:07.484Z,101980.33
2022-07-28T08:39:37.678Z,101975.13
2022-07-28T08:42:18.445Z,101968.22
2022-07-28T08:44:57.184Z,101964.98
2022-07-28T08:47:40.253Z,101962.43
2022-07-28T08:50:00.275Z,101962.43
2022-07-28T08:52:31.881Z,101958.97
2022-07-28T08:55:04.917Z,101962.57
2022-07-28T08:57:40.080Z,101948.53
2022-07-28T09:00:12.696Z,101948.53
2022-07-28T09:02:46.105Z,101967.47
2022-07-28T09:05:16.211Z,101967.47
2022-07-28T09:07:54.081Z,101958.72
2022-07-28T09:10:21.809Z,101961.47
2022-07-28T09:12:52.282Z,101967.61
2022-07-28T09:15:21.769Z,101957.39
2022-07-28T09:17:51.525Z,101955.48
2022-07-28T09:20:21.691Z,101957.95
2022-07-28T09:23:00.026Z,101956.39
2022-07-28T09:25:31.118Z,101958.64
2022-07-28T09:28:14.465Z,101950.30
2022-07-28T09:30:53.511Z,101959.39
2022-07-28T09:33:42.175Z,101956.56
2022-07-28T09:35:58.256Z,101952.55
2022-07-28T09:38:28.607Z,101950.43
2022-07-28T09:41:04.117Z,101946.11
2022-07-28T09:43:39.560Z,101946.84
2022-07-28T09:46:23.752Z,101948.03
2022-07-28T09:48:56.382Z,101925.95
2022-07-28T09:51:33.258Z,101925.95
2022-07-28T09:54:14.821Z,101952.73
2022-07-28T09:56:46.158Z,101941.61
2022-07-28T09:59:18.054Z,101931.95
2022-07-28T10:02:03.048Z,101933.10
2022-07-28T10:04:38.050Z,101929.52
2022-07-28T10:07:14.127Z,101913.85
2022-07-28T10:09:45.027Z,101910.48
2022-07-28T10:12:22.767Z,101914.71
2022-07-28T10:14:54.632Z,101915.63
2022-07-28T10:17:26.128Z,101907.95
2022-07-28T10:19:58.324Z,101914.95
2022-07-28T10:22:32.407Z,101901.53
2022-07-28T10:25:04.436Z,101892.34
2022-07-28T10:27:34.485Z,101892.38
2022-07-28T10:30:08.127Z,101867.70
2022-07-28T10:32:46.367Z,101867.70
2022-07-28T10:35:17.653Z,101885.09
2022-07-28T10:38:02.621Z,101884.41
2022-07-28T10:40:38.248Z,101880.29
2022-07-28T10:43:09.647Z,101874.42
2022-07-28T10:46:04.265Z,101883.68
2022-07-28T10:48:13.934Z,101872.77
2022-07-28T10:50:45.071Z,101878.86
2022-07-28T10:53:34.183Z,101871.84
2022-07-28T10:56:15.079Z,101874.72
2022-07-28T10:59:04.917Z,101881.73
2022-07-28T11:01:50.036Z,101876.44
2022-07-28T11:04:31.609Z,101881.13
2022-07-28T11:07:12.012Z,101878.31
2022-07-28T11:09:42.009Z,101876.66
2022-07-28T11:12:13.244Z,101876.89
2022-07-28T11:14:44.695Z,101878.34
2022-07-28T11:17:24.320Z,101873.31
2022-07-28T11:22:28.194Z,101871.39
2022-07-28T11:25:20.012Z,101866.95
2022-07-28T11:27:47.410Z,101857.01
2022-07-28T11:30:31.223Z,101853.39
2022-07-28T11:33:01.963Z,101827.38
2022-07-28T11:35:42.778Z,101827.38
2022-07-28T11:38:13.998Z,101851.94
2022-07-28T11:40:48.933Z,101852.52
2022-07-28T11:43:36.032Z,101845.41
2022-07-28T11:46:11.836Z,101835.83
2022-07-28T11:48:44.787Z,101839.44
2022-07-28T11:51:15.828Z,101835.35
2022-07-28T11:53:48.072Z,101833.73
2022-07-28T11:56:26.450Z,101835.83
2022-07-28T11:59:01.914Z,101838.62
2022-07-28T12:01:32.529Z,101833.23
2022-07-28T12:04:14.185Z,101832.17
2022-07-28T12:06:51.168Z,101834.00
2022-07-28T12:09:23.300Z,101803.95
2022-07-28T12:11:51.224Z,101803.95
2022-07-28T12:14:22.462Z,101818.16
2022-07-28T12:16:53.460Z,101812.53
2022-07-28T12:19:24.170Z,101814.03
2022-07-28T12:21:58.247Z,101809.27
2022-07-28T12:24:30.168Z,101804.77
2022-07-28T12:27:00.960Z,101803.11
2022-07-28T12:29:35.729Z,101795.53
2022-07-28T12:32:12.774Z,101795.53
2022-07-28T12:34:44.328Z,101801.47
2022-07-28T12:37:14.881Z,101796.76
2022-07-28T12:39:46.096Z,101796.92
2022-07-28T12:42:15.561Z,101793.63
2022-07-28T12:44:48.444Z,101793.25
2022-07-28T12:47:21.240Z,101803.59
2022-07-28T12:49:58.549Z,101796.26
2022-07-28T12:52:26.341Z,101790.91
2022-07-28T12:54:56.824Z,101790.85
2022-07-28T12:57:51.397Z,101787.56
2022-07-28T13:00:26.989Z,101783.11
2022-07-28T13:02:59.132Z,101778.02
2022-07-28T13:05:54.935Z,101773.92
2022-07-28T13:08:27.679Z,101769.28
2022-07-28T13:11:01.105Z,101764.81
2022-07-28T13:13:30.866Z,101768.49
2022-07-28T13:16:15.479Z,101765.17
2022-07-28T13:18:54.073Z,101742.73
2022-07-28T13:21:56.506Z,101742.73
2022-07-28T13:24:19.720Z,101758.78
2022-07-28T13:26:49.989Z,101761.76
2022-07-28T13:29:19.784Z,101766.80
2022-07-28T13:31:49.604Z,101761.96
2022-07-28T13:34:19.275Z,101750.80
2022-07-28T13:36:49.115Z,101758.89
2022-07-28T13:39:18.874Z,101756.66
2022-07-28T13:41:58.266Z,101751.73
2022-07-28T13:44:20.203Z,101756.50
2022-07-28T13:46:50.531Z,101751.03
2022-07-28T13:49:21.225Z,101747.70
2022-07-28T13:51:51.835Z,101752.48
2022-07-28T13:54:22.083Z,101751.63
2022-07-28T13:56:51.895Z,101747.91
2022-07-28T13:59:22.217Z,101742.42
2022-07-28T14:01:55.245Z,101739.69
2022-07-28T14:04:25.207Z,101731.14
2022-07-28T14:06:56.230Z,101730.62
2022-07-28T14:09:25.994Z,101728.66
2022-07-28T14:11:55.800Z,101734.64
2022-07-28T14:14:26.029Z,101720.84
2022-07-28T14:16:55.893Z,101732.83
2022-07-28T14:19:38.460Z,101732.83
2022-07-28T14:21:58.563Z,101730.50
2022-07-28T14:24:28.113Z,101732.14
2022-07-28T14:26:57.869Z,101736.36
2022-07-28T14:29:28.052Z,101736.86
2022-07-28T14:31:59.380Z,101723.65
2022-07-28T14:34:29.307Z,101727.41
2022-07-28T14:36:59.071Z,101720.64
2022-07-28T14:39:30.545Z,101717.56
2022-07-28T14:42:00.036Z,101713.48
2022-07-28T14:44:29.875Z,101722.88
2022-07-28T14:46:59.753Z,101719.71
2022-07-28T14:49:29.499Z,101716.78
2022-07-28T14:51:59.467Z,101714.73
2022-07-28T14:54:30.011Z,101721.34
2022-07-28T14:56:59.776Z,101713.97
2022-07-28T14:59:29.283Z,101710.86
2022-07-28T15:01:59.306Z,101708.17
2022-07-28T15:04:29.133Z,101702.64
2022-07-28T15:06:58.904Z,101700.17
2022-07-28T15:09:28.662Z,101696.66
2022-07-28T15:11:58.444Z,101698.67
2022-07-28T15:14:28.149Z,101698.32
2022-07-28T15:16:58.786Z,101701.50
2022-07-28T15:19:28.274Z,101701.64
2022-07-28T15:21:59.007Z,101699.22
2022-07-28T15:24:30.504Z,101697.79
2022-07-28T15:27:01.196Z,101699.13
2022-07-28T15:29:35.285Z,101686.95
2022-07-28T15:32:06.840Z,101686.35
2022-07-28T15:34:38.572Z,101686.78
2022-07-28T15:37:08.700Z,101681.80
2022-07-28T15:39:43.233Z,101675.71
2022-07-28T15:42:11.235Z,101682.88
2022-07-28T15:44:41.006Z,101688.33
2022-07-28T15:47:10.778Z,101686.61
2022-07-28T15:49:41.570Z,101686.04
2022-07-28T15:52:12.225Z,101682.16
2022-07-28T15:54:42.142Z,101685.76
2022-07-28T15:57:11.962Z,101688.75
2022-07-28T15:59:49.902Z,101687.98
2022-07-28T16:02:13.335Z,101683.95
2022-07-28T16:04:48.453Z,101685.11
2022-07-28T16:07:19.195Z,101679.86
2022-07-28T16:09:52.079Z,101679.33
2022-07-28T16:12:22.903Z,101679.50
2022-07-28T16:14:54.049Z,101684.16
2022-07-28T16:17:25.073Z,101682.36
2022-07-28T16:19:54.566Z,101673.91
2022-07-28T16:22:24.037Z,101665.12
2022-07-28T16:24:53.799Z,101678.84
2022-07-28T16:27:23.282Z,101682.67
2022-07-28T16:29:53.087Z,101672.89
2022-07-28T16:32:22.558Z,101674.64
2022-07-28T16:34:53.774Z,101674.34
2022-07-28T16:37:23.275Z,101665.23
2022-07-28T16:39:53.103Z,101668.28
2022-07-28T16:42:22.801Z,101669.08
2022-07-28T16:44:52.692Z,101672.44
2022-07-28T16:47:22.752Z,101670.48
2022-07-28T16:49:52.320Z,101663.90
2022-07-28T16:52:22.163Z,101666.95
2022-07-28T16:54:52.192Z,101667.07
2022-07-28T16:57:22.036Z,101663.27
2022-07-28T16:59:51.878Z,101664.01
2022-07-28T17:02:21.374Z,101658.28
2022-07-28T17:04:51.192Z,101662.17
2022-07-28T17:07:22.045Z,101657.28
2022-07-28T17:09:51.881Z,101644.73
2022-07-28T17:12:21.363Z,101644.73
2022-07-28T17:14:51.127Z,101658.95
2022-07-28T17:17:20.891Z,101659.63
2022-07-28T17:19:50.714Z,101661.73
2022-07-28T17:22:22.046Z,101655.91
2022-07-28T17:24:52.006Z,101644.75
2022-07-28T17:27:39.670Z,101644.75
2022-07-28T17:29:54.063Z,101657.53
2022-07-28T17:32:23.835Z,101663.21
2022-07-28T17:34:54.157Z,101645.60
2022-07-28T17:37:23.935Z,101645.60
2022-07-28T17:39:53.981Z,101661.20
2022-07-28T17:42:23.750Z,101666.28
2022-07-28T17:44:55.388Z,101648.45
2022-07-28T17:47:36.143Z,101648.45
2022-07-28T17:49:57.190Z,101661.52
2022-07-28T17:52:26.755Z,101666.58
2022-07-28T17:55:14.074Z,101660.88
2022-07-28T17:57:45.317Z,101661.03
2022-07-28T18:00:17.073Z,101656.49
2022-07-28T18:02:50.942Z,101655.44
2022-07-28T18:05:21.352Z,101656.72
2022-07-28T18:07:54.849Z,101644.35
2022-07-28T18:10:24.685Z,101644.35
2022-07-28T18:12:54.291Z,101660.35
2022-07-28T18:15:24.152Z,101667.59
2022-07-28T18:17:55.892Z,101648.61
2022-07-28T18:20:26.032Z,101648.61
2022-07-28T18:22:57.789Z,101664.27
2022-07-28T18:25:30.212Z,101664.78
2022-07-28T18:28:00.255Z,101663.69
2022-07-28T18:30:30.304Z,101657.56
2022-07-28T18:33:01.506Z,101667.30
2022-07-28T18:35:32.310Z,101668.75
2022-07-28T18:38:02.106Z,101653.13
2022-07-28T18:40:32.419Z,101653.13
2022-07-28T18:43:02.175Z,101674.05
2022-07-28T18:45:31.951Z,101658.34
2022-07-28T18:48:03.388Z,101658.34
2022-07-28T18:50:33.152Z,101674.57
2022-07-28T18:53:03.202Z,101678.22
2022-07-28T18:55:32.972Z,101679.27
2022-07-28T18:58:02.731Z,101679.61
2022-07-28T19:00:33.384Z,101679.84
2022-07-28T19:03:03.547Z,101683.52
2022-07-28T19:05:36.980Z,101674.84
2022-07-28T19:08:04.777Z,101654.44
2022-07-28T19:10:34.617Z,101654.44
2022-07-28T19:13:04.745Z,101669.45
2022-07-28T19:15:36.546Z,101661.96
2022-07-28T19:18:11.006Z,101667.98
2022-07-28T19:20:40.988Z,101662.72
2022-07-28T19:23:10.729Z,101673.86
2022-07-28T19:25:41.009Z,101679.15
2022-07-28T19:28:11.939Z,101674.86
2022-07-28T19:30:42.343Z,101680.79
2022-07-28T19:33:17.224Z,101685.52
2022-07-28T19:35:43.656Z,101691.16
2022-07-28T19:38:13.404Z,101693.51
2022-07-28T19:40:43.602Z,101706.36
2022-07-28T19:43:13.430Z,101703.71
2022-07-28T19:45:43.280Z,101704.08
2022-07-28T19:48:13.476Z,101700.45
2022-07-28T19:50:49.991Z,101700.45
2022-07-28T19:53:15.824Z,101728.67
2022-07-28T19:55:50.585Z,101728.28
2022-07-28T19:58:17.509Z,101719.33
2022-07-28T20:00:48.375Z,101726.59
2022-07-28T20:04:01.825Z,101706.00
2022-07-28T20:05:50.250Z,101706.00
2022-07-28T20:08:19.782Z,101727.38
2022-07-28T20:10:50.404Z,101726.28
2022-07-28T20:13:20.253Z,101727.05
2022-07-28T20:15:50.089Z,101728.64
2022-07-28T20:18:19.919Z,101723.00
2022-07-28T20:20:49.756Z,101714.19
2022-07-28T20:23:19.512Z,101719.64
2022-07-28T20:25:49.655Z,101721.56
2022-07-28T20:28:19.115Z,101714.36
2022-07-28T20:30:49.286Z,101715.28
2022-07-28T20:33:19.263Z,101715.28
2022-07-28T20:35:49.014Z,101701.48
2022-07-28T20:38:22.128Z,101701.48
2022-07-28T20:40:52.326Z,101726.27
2022-07-28T20:43:22.161Z,101732.20
2022-07-28T20:45:51.979Z,101732.58
2022-07-28T20:48:21.797Z,101725.98
2022-07-28T20:50:51.556Z,101735.85
2022-07-28T20:53:21.096Z,101735.78
2022-07-28T20:55:50.849Z,101739.45
2022-07-28T20:58:20.624Z,101740.01
2022-07-28T21:00:50.616Z,101747.39
2022-07-28T21:03:22.211Z,101747.39
2022-07-28T21:05:51.969Z,101754.86
2022-07-28T21:08:21.912Z,101747.34
2022-07-28T21:10:51.847Z,101750.77
2022-07-28T21:13:21.609Z,101744.36
2022-07-28T21:15:51.339Z,101748.83
2022-07-28T21:18:21.102Z,101749.06
2022-07-28T21:20:50.867Z,101751.20
2022-07-28T21:23:20.708Z,101748.69
2022-07-28T21:25:51.276Z,101753.86
2022-07-28T21:28:38.595Z,101750.88
2022-07-28T21:31:09.531Z,101740.31
2022-07-28T21:33:39.632Z,101740.31
2022-07-28T21:36:10.367Z,101762.41
2022-07-28T21:38:40.208Z,101756.83
2022-07-28T21:41:10.032Z,101737.63
2022-07-28T21:43:39.944Z,101737.63
2022-07-28T21:46:11.749Z,101748.16
2022-07-28T21:48:41.573Z,101752.91
2022-07-28T21:51:14.785Z,101759.19
2022-07-28T21:53:46.131Z,101760.68
2022-07-28T21:56:16.472Z,101760.84
2022-07-28T21:58:47.458Z,101760.25
2022-07-28T22:01:17.294Z,101737.06
2022-07-28T22:03:46.993Z,101737.06
2022-07-28T22:06:17.034Z,101746.79
2022-07-28T22:08:48.791Z,101742.70
2022-07-28T22:11:18.543Z,101738.66
2022-07-28T22:13:48.426Z,101741.61
2022-07-28T22:16:18.281Z,101744.17
2022-07-28T22:18:48.104Z,101741.08
2022-07-28T22:21:17.851Z,101742.31
2022-07-28T22:23:47.650Z,101743.81
2022-07-28T22:26:17.640Z,101753.77
2022-07-28T22:28:47.169Z,101756.28
2022-07-28T22:31:17.066Z,101754.89
2022-07-28T22:33:46.922Z,101759.48
2022-07-28T22:36:16.881Z,101756.27
2022-07-28T22:38:46.648Z,101754.92
2022-07-28T22:41:16.398Z,101746.79
2022-07-28T22:43:46.139Z,101748.80
2022-07-28T22:46:15.829Z,101739.23
2022-07-28T22:48:45.677Z,101734.69
2022-07-28T22:51:16.686Z,101742.03
2022-07-28T22:53:46.177Z,101738.59
2022-07-28T22:59:04.232Z,101746.60
2022-07-28T23:01:34.837Z,101751.18
2022-07-28T23:04:06.024Z,101755.71
2022-07-28T23:06:37.605Z,101750.50
2022-07-28T23:09:07.720Z,101756.11
2022-07-28T23:11:37.559Z,101755.07
2022-07-28T23:14:07.400Z,101748.37
2022-07-28T23:16:37.311Z,101748.37
2022-07-28T23:19:07.142Z,101756.30
2022-07-28T23:21:40.487Z,101749.53
2022-07-28T23:24:12.088Z,101756.00
2022-07-28T23:26:42.254Z,101734.23
2022-07-28T23:29:12.101Z,101734.23
2022-07-28T23:31:41.972Z,101747.95
2022-07-28T23:34:12.029Z,101736.50
2022-07-28T23:36:42.264Z,101755.54
2022-07-28T23:39:12.854Z,101755.54
2022-07-28T23:41:42.690Z,101744.09
2022-07-28T23:44:14.733Z,101752.06
2022-07-28T23:46:44.717Z,101744.80
2022-07-28T23:49:15.788Z,101744.80
2022-07-28T23:51:47.710Z,101754.02
2022-07-28T23:54:17.868Z,101754.20
2022-07-28T23:56:49.403Z,101748.44
2022-07-28T23:59:19.264Z,101747.05
